Terminal Aerodrome Forecast
Issued by NWS

Home | Current Version | Previous Version | Text Only | Print | Product List | Glossary On
Versions: 1 2 3 4 5 6 7 8 9 10 11 12 13 14 15 16 17
305
FTUS43 KMQT 190520
TAFIWD
TAF
KIWD 190520Z 1906/2006 30012G20KT 5SM -SHSN OVC020
     FM191300 28009KT P6SM VCSH BKN020
     FM191600 27010KT P6SM BKN050
     FM192300 24008KT P6SM BKN050
     FM200200 23006KT P6SM SCT080=

USA.gov is the U.S. government's official web portal to all federal, state and local government web resources and services.